Time;durP1;ratioP1;P1;durP2;ratioP2;P2;SDS_P1;SDS_P2;PMS_P1;PMS_P2;Temp;Humidity;BMP_temperature;BMP_pressure;BME280_temperature;BME280_humidity;BME280_pressure;Samples;Min_cycle;Max_cycle;Signal;HPM_P1;HPM_P2
2021/06/28 00:00:41;;;;;;;6.28;3.38;;;;;;;15.45;83.30;95495.72;5092644;28;20039;-78
2021/06/28 00:03:19;;;;;;;5.70;3.50;;;;;;;15.42;83.21;95494.44;5077489;28;20036;-78
2021/06/28 00:05:46;;;;;;;7.70;3.58;;;;;;;15.42;83.11;95499.75;5081674;28;20047;-78
2021/06/28 00:08:11;;;;;;;4.72;3.10;;;;;;;15.42;82.98;95505.06;5083885;28;20352;-78
2021/06/28 00:10:37;;;;;;;5.68;3.20;;;;;;;15.43;82.44;95508.50;5065378;28;20528;-78
2021/06/28 00:13:03;;;;;;;5.45;3.35;;;;;;;15.45;82.31;95497.59;5082216;28;20036;-78
2021/06/28 00:15:37;;;;;;;5.55;3.30;;;;;;;15.45;81.92;95481.69;5087565;28;20490;-78
2021/06/28 00:18:03;;;;;;;5.97;3.08;;;;;;;15.41;81.86;95482.31;5079695;28;20036;-78
2021/06/28 00:20:28;;;;;;;4.30;2.92;;;;;;;15.44;82.04;95485.41;5080765;28;20047;-78
2021/06/28 00:22:54;;;;;;;4.32;3.25;;;;;;;15.38;82.69;95487.41;5080903;28;20040;-77
2021/06/28 00:25:21;;;;;;;4.57;3.22;;;;;;;15.27;83.10;95475.47;5091652;28;20040;-78
2021/06/28 00:27:47;;;;;;;4.82;3.22;;;;;;;15.13;83.89;95475.50;5086920;28;20489;-78
2021/06/28 00:30:15;;;;;;;4.85;3.05;;;;;;;15.15;84.13;95483.94;5087615;28;20041;-77
2021/06/28 00:32:42;;;;;;;4.78;3.22;;;;;;;15.15;83.68;95483.94;5072688;28;20041;-77
2021/06/28 00:35:09;;;;;;;5.85;3.13;;;;;;;15.10;83.90;95468.94;5081191;28;20493;-77
2021/06/28 00:37:36;;;;;;;5.07;3.38;;;;;;;15.04;84.15;95468.28;5092404;28;20051;-77
2021/06/28 00:40:04;;;;;;;4.20;2.88;;;;;;;15.09;83.59;95469.25;5078538;28;20144;-77
2021/06/28 00:42:29;;;;;;;4.82;3.20;;;;;;;15.14;83.68;95471.75;5068287;28;20051;-77
2021/06/28 00:44:55;;;;;;;5.95;2.97;;;;;;;15.26;82.57;95480.00;5090750;28;20036;-78
2021/06/28 00:47:21;;;;;;;5.80;3.20;;;;;;;15.31;82.68;95490.47;5093280;28;20036;-78
2021/06/28 00:49:47;;;;;;;10.15;2.90;;;;;;;15.40;82.27;95501.94;5086070;28;20037;-78
2021/06/28 00:52:14;;;;;;;4.88;3.10;;;;;;;15.47;81.60;95490.13;5072350;28;20107;-77
2021/06/28 00:54:41;;;;;;;4.07;2.85;;;;;;;15.40;81.39;95486.03;5066175;28;20048;-78
2021/06/28 00:57:07;;;;;;;4.57;2.72;;;;;;;15.51;80.48;95493.75;5088408;28;20047;-78
2021/06/28 00:59:34;;;;;;;4.85;2.90;;;;;;;15.55;79.92;95497.38;5077372;28;20032;-78
2021/06/28 01:02:02;;;;;;;5.68;2.90;;;;;;;15.58;79.84;95488.81;5077450;28;20092;-78
2021/06/28 01:04:31;;;;;;;8.18;2.58;;;;;;;15.58;80.13;95480.84;5064306;28;20051;-77
2021/06/28 01:06:57;;;;;;;4.50;2.78;;;;;;;15.61;80.17;95490.84;5090803;28;20032;-78
2021/06/28 01:09:23;;;;;;;3.28;2.65;;;;;;;15.65;80.00;95491.81;5086958;28;20132;-78
2021/06/28 01:11:49;;;;;;;4.57;2.75;;;;;;;15.64;79.82;95479.63;5087310;28;20048;-78
2021/06/28 01:14:18;;;;;;;3.85;2.45;;;;;;;15.72;79.85;95486.09;5077733;28;20226;-78
2021/06/28 01:16:44;;;;;;;3.47;2.80;;;;;;;15.75;80.21;95480.94;5080114;28;20044;-77
2021/06/28 01:19:15;;;;;;;3.35;2.40;;;;;;;15.72;80.26;95486.88;5090830;28;20043;-78
2021/06/28 01:21:42;;;;;;;3.70;2.60;;;;;;;15.72;80.06;95486.88;5079921;28;20037;-78
2021/06/28 01:24:08;;;;;;;5.28;2.70;;;;;;;15.75;80.11;95491.56;5078079;28;20033;-78
2021/06/28 01:26:35;;;;;;;3.80;2.50;;;;;;;15.76;79.72;95477.22;5096135;28;20045;-79
2021/06/28 01:29:00;;;;;;;3.35;2.55;;;;;;;15.77;80.18;95478.78;5099760;28;20056;-78
2021/06/28 01:31:26;;;;;;;4.68;2.50;;;;;;;15.81;79.78;95483.53;5084464;28;20452;-78
2021/06/28 01:33:51;;;;;;;4.20;2.53;;;;;;;15.78;80.09;95468.97;5085130;28;20041;-78
2021/06/28 01:36:17;;;;;;;5.00;2.70;;;;;;;15.76;81.24;95466.59;5080939;28;20046;-78
2021/06/28 01:38:42;;;;;;;3.88;2.58;;;;;;;15.76;81.36;95455.22;5077655;28;20044;-79
2021/06/28 01:41:08;;;;;;;3.92;2.60;;;;;;;15.77;80.83;95456.78;5082047;28;20037;-78
2021/06/28 01:43:34;;;;;;;4.15;2.60;;;;;;;15.75;81.10;95443.81;5092265;28;20431;-78
2021/06/28 01:45:59;;;;;;;3.50;2.40;;;;;;;15.67;81.30;95447.19;5078146;28;20048;-78
2021/06/28 01:48:25;;;;;;;7.38;2.40;;;;;;;15.60;81.48;95452.13;5080918;28;20048;-78
2021/06/28 01:50:51;;;;;;;4.32;2.47;;;;;;;15.68;80.80;95464.69;5093840;28;20097;-78
2021/06/28 01:53:17;;;;;;;3.38;2.40;;;;;;;15.73;80.88;95461.91;5099024;28;20268;-78
2021/06/28 01:55:43;;;;;;;3.08;2.50;;;;;;;15.74;81.12;95463.47;5094636;28;20045;-78
2021/06/28 01:58:13;;;;;;;3.05;2.47;;;;;;;15.75;80.46;95475.66;5069931;28;20047;-78
2021/06/28 02:00:49;;;;;;;3.22;2.45;;;;;;;15.69;80.40;95479.53;5078626;28;20082;-78
2021/06/28 02:03:16;;;;;;;5.28;2.42;;;;;;;15.73;80.90;95493.75;5077989;28;20037;-78
2021/06/28 02:05:49;;;;;;;3.65;2.42;;;;;;;15.81;80.40;95510.06;5075638;28;20036;-78
2021/06/28 02:08:17;;;;;;;6.65;2.40;;;;;;;15.95;79.31;95532.00;5074884;28;20047;-78
2021/06/28 02:10:48;;;;;;;3.63;2.55;;;;;;;16.00;79.27;95554.97;5070461;28;20045;-78
2021/06/28 02:13:26;;;;;;;3.85;2.40;;;;;;;16.05;79.30;95552.97;5093582;28;20085;-78
2021/06/28 02:15:53;;;;;;;3.38;2.42;;;;;;;16.16;79.63;95539.44;5075933;28;20036;-77
2021/06/28 02:18:21;;;;;;;4.22;2.50;;;;;;;16.18;79.09;95534.63;5076082;28;20032;-78
2021/06/28 02:20:48;;;;;;;3.88;2.50;;;;;;;16.29;78.73;95525.31;5065001;28;20044;-78
2021/06/28 02:23:29;;;;;;;3.20;2.40;;;;;;;16.27;78.82;95527.50;5091286;28;20044;-78
2021/06/28 02:26:03;;;;;;;4.65;2.35;;;;;;;16.31;78.89;95522.38;5082226;28;20039;-78
2021/06/28 02:28:33;;;;;;;3.22;2.45;;;;;;;16.30;78.73;95518.13;5071900;28;20495;-77
2021/06/28 02:30:59;;;;;;;4.03;2.40;;;;;;;16.21;79.37;95508.25;5062787;28;20477;-78
2021/06/28 02:33:25;;;;;;;4.00;2.40;;;;;;;16.24;79.41;95501.56;5083519;28;20066;-78
2021/06/28 02:35:52;;;;;;;4.35;2.75;;;;;;;16.25;79.28;95503.13;5097419;28;20098;-78
2021/06/28 02:38:18;;;;;;;3.72;2.45;;;;;;;16.17;79.70;95501.97;5075251;28;20107;-78
2021/06/28 02:40:44;;;;;;;3.10;2.40;;;;;;;16.02;79.90;95500.50;5061207;28;20470;-77
2021/06/28 02:43:10;;;;;;;4.40;2.40;;;;;;;15.91;81.12;95504.50;5065016;28;20417;-78
2021/06/28 02:45:36;;;;;;;4.78;2.50;;;;;;;15.80;81.55;95492.56;5078180;28;20040;-77
2021/06/28 02:48:03;;;;;;;4.35;2.70;;;;;;;15.71;81.67;95501.22;5067988;28;20036;-77
2021/06/28 02:50:29;;;;;;;3.30;2.58;;;;;;;15.55;82.74;95498.13;5067225;28;20048;-77
2021/06/28 02:52:54;;;;;;;4.28;2.45;;;;;;;15.45;83.36;95513.50;5069854;28;20037;-77
2021/06/28 02:55:20;;;;;;;3.63;2.50;;;;;;;15.31;83.76;95506.38;5078775;28;20166;-77
2021/06/28 02:57:46;;;;;;;5.22;2.92;;;;;;;15.31;83.78;95513.56;5073858;28;20043;-77
2021/06/28 03:00:14;;;;;;;3.70;2.70;;;;;;;15.30;83.53;95507.47;5082834;28;20033;-78
2021/06/28 03:02:40;;;;;;;4.18;2.58;;;;;;;15.28;83.53;95504.31;5084502;28;20056;-77
2021/06/28 03:05:08;;;;;;;4.63;3.08;;;;;;;15.20;83.82;95497.88;5079557;28;20032;-77
2021/06/28 03:07:34;;;;;;;6.40;2.83;;;;;;;15.17;84.14;95502.97;5073049;28;20036;-78
2021/06/28 03:10:00;;;;;;;5.72;2.70;;;;;;;15.16;84.33;95504.06;5075450;28;20047;-78
2021/06/28 03:12:25;;;;;;;4.82;2.75;;;;;;;15.18;84.30;95499.25;5094686;28;20040;-78
2021/06/28 03:14:51;;;;;;;4.55;2.67;;;;;;;15.19;83.68;95495.53;5074667;28;20413;-78
2021/06/28 03:17:17;;;;;;;4.88;2.90;;;;;;;15.10;84.28;95494.66;5079604;28;20029;-77
2021/06/28 03:19:42;;;;;;;7.22;2.65;;;;;;;15.06;84.57;95492.59;5077350;28;20039;-77
2021/06/28 03:22:08;;;;;;;3.40;2.40;;;;;;;14.99;84.93;95492.22;5092941;28;20100;-77
2021/06/28 03:24:33;;;;;;;4.78;2.60;;;;;;;14.95;84.84;95501.06;5059231;28;20045;-77
2021/06/28 03:26:59;;;;;;;5.95;2.65;;;;;;;14.90;84.91;95509.91;5075292;28;20076;-77
2021/06/28 03:29:25;;;;;;;6.03;2.80;;;;;;;14.86;84.88;95508.94;5074032;28;20040;-77
2021/06/28 03:31:51;;;;;;;4.30;2.70;;;;;;;14.85;85.01;95510.00;5088845;28;20047;-77
2021/06/28 03:34:16;;;;;;;5.25;2.65;;;;;;;14.85;84.89;95512.66;5075924;28;20036;-77
2021/06/28 03:36:42;;;;;;;4.30;2.65;;;;;;;14.78;85.33;95512.25;5077120;28;20044;-77
2021/06/28 03:39:08;;;;;;;4.10;3.00;;;;;;;14.76;85.21;95511.78;5068434;28;20043;-77
2021/06/28 03:41:34;;;;;;;4.90;3.00;;;;;;;14.77;85.30;95510.69;5072208;28;20040;-77
2021/06/28 03:44:00;;;;;;;5.85;2.60;;;;;;;14.80;85.19;95520.72;5068820;28;20041;-77
2021/06/28 03:46:26;;;;;;;4.10;2.60;;;;;;;14.84;84.90;95516.38;5071018;28;20281;-77
2021/06/28 03:48:52;;;;;;;4.40;2.80;;;;;;;14.88;85.23;95518.16;5084354;28;20045;-78
2021/06/28 03:51:18;;;;;;;3.40;2.38;;;;;;;14.88;84.98;95517.34;5063540;28;20413;-77
2021/06/28 03:53:43;;;;;;;5.45;3.13;;;;;;;14.81;85.33;95516.97;5084296;28;20075;-77
2021/06/28 03:56:09;;;;;;;4.70;2.65;;;;;;;14.87;85.55;95521.09;5073084;28;20041;-77
2021/06/28 03:58:38;;;;;;;4.57;2.80;;;;;;;14.86;85.90;95522.19;5052725;28;20060;-77
2021/06/28 04:01:05;;;;;;;3.92;2.88;;;;;;;14.86;85.95;95527.47;5094287;28;20033;-76
2021/06/28 04:03:33;;;;;;;5.95;2.90;;;;;;;14.87;85.87;95527.19;5072168;28;20040;-77
2021/06/28 04:06:05;;;;;;;6.18;2.58;;;;;;;14.92;85.70;95528.16;5069150;28;20060;-77
2021/06/28 04:08:35;;;;;;;4.38;2.95;;;;;;;15.02;85.37;95534.03;5078044;28;20491;-77
2021/06/28 04:11:03;;;;;;;5.50;3.47;;;;;;;15.00;85.28;95528.25;5082196;28;20040;-77
2021/06/28 04:13:28;;;;;;;3.38;2.55;;;;;;;15.04;85.53;95537.16;5070145;28;20114;-77
2021/06/28 04:15:54;;;;;;;6.45;3.33;;;;;;;15.07;85.59;95536.56;5078131;28;20493;-77
2021/06/28 04:18:20;;;;;;;6.90;3.10;;;;;;;15.07;86.12;95530.50;5093426;28;20041;-77
2021/06/28 04:20:45;;;;;;;4.50;3.15;;;;;;;15.11;85.89;95530.69;5084442;28;20048;-77
2021/06/28 04:23:11;;;;;;;4.50;2.88;;;;;;;15.14;85.91;95517.63;5076132;28;20044;-77
2021/06/28 04:25:37;;;;;;;7.50;3.55;;;;;;;15.25;85.92;95521.59;5066313;28;20044;-77
2021/06/28 04:28:04;;;;;;;6.47;3.22;;;;;;;15.40;85.28;95519.69;5068023;28;20486;-77
2021/06/28 04:30:29;;;;;;;4.72;3.08;;;;;;;15.48;85.24;95510.25;5077206;28;20041;-77
2021/06/28 04:32:55;;;;;;;8.55;2.92;;;;;;;15.57;85.25;95516.41;5073895;28;20094;-77
2021/06/28 04:35:23;;;;;;;3.85;2.75;;;;;;;15.61;85.02;95522.69;5066667;28;20052;-77
2021/06/28 04:37:49;;;;;;;5.40;3.17;;;;;;;15.67;84.87;95516.16;5078316;28;20514;-77
2021/06/28 04:40:18;;;;;;;4.82;3.17;;;;;;;15.79;84.65;95515.66;5065961;28;20037;-77
2021/06/28 04:42:44;;;;;;;7.82;3.00;;;;;;;15.84;84.83;95522.72;5065605;28;20037;-77
2021/06/28 04:45:11;;;;;;;4.53;2.88;;;;;;;15.90;84.49;95516.19;5077557;28;20049;-77
2021/06/28 04:47:37;;;;;;;5.38;3.00;;;;;;;15.95;85.17;95516.06;5069750;28;20075;-77
2021/06/28 04:50:04;;;;;;;6.15;3.20;;;;;;;16.07;83.70;95524.25;5072457;28;20037;-77
2021/06/28 04:52:31;;;;;;;4.60;3.38;;;;;;;16.26;82.89;95520.59;5071841;28;20634;-76
2021/06/28 04:54:58;;;;;;;6.80;3.28;;;;;;;16.39;82.86;95527.72;5072801;28;20048;-77
2021/06/28 04:57:23;;;;;;;5.38;3.28;;;;;;;16.48;82.32;95526.94;5075974;28;20409;-77
2021/06/28 04:59:49;;;;;;;5.18;3.00;;;;;;;16.56;82.88;95523.56;5073534;28;20051;-77
2021/06/28 05:02:15;;;;;;;3.72;3.03;;;;;;;16.60;82.80;95527.16;5081155;28;20033;-77
2021/06/28 05:04:41;;;;;;;4.15;3.20;;;;;;;16.70;81.75;95529.53;5076229;28;20067;-77
2021/06/28 05:07:06;;;;;;;5.53;3.25;;;;;;;16.82;81.77;95531.59;5061686;28;20033;-76
2021/06/28 05:09:32;;;;;;;5.05;3.30;;;;;;;16.90;81.49;95527.44;5056144;28;20047;-77
2021/06/28 05:11:58;;;;;;;4.28;3.03;;;;;;;16.96;81.57;95526.19;5070514;28;20040;-77
2021/06/28 05:14:26;;;;;;;5.40;3.50;;;;;;;16.94;82.44;95523.09;5096953;28;20037;-78
2021/06/28 05:16:51;;;;;;;5.60;3.33;;;;;;;16.95;81.88;95521.97;5083076;28;20248;-78
2021/06/28 05:19:17;;;;;;;4.30;3.33;;;;;;;17.07;81.57;95526.72;5073871;28;20037;-77
2021/06/28 05:21:42;;;;;;;4.32;3.33;;;;;;;17.23;80.16;95529.69;5090369;28;20052;-77
2021/06/28 05:24:08;;;;;;;5.00;3.33;;;;;;;17.32;79.76;95525.16;5075673;28;20456;-77
2021/06/28 05:26:34;;;;;;;4.10;3.28;;;;;;;17.45;80.08;95524.22;5066912;28;20036;-77
2021/06/28 05:28:59;;;;;;;4.78;3.25;;;;;;;17.60;78.94;95527.53;5077822;28;20099;-78
2021/06/28 05:31:26;;;;;;;4.40;3.45;;;;;;;17.72;78.97;95535.66;5077740;28;20040;-77
2021/06/28 05:33:52;;;;;;;4.05;3.35;;;;;;;17.78;78.47;95529.06;5088842;28;20258;-77
2021/06/28 05:36:18;;;;;;;5.90;3.72;;;;;;;17.97;78.13;95531.44;5072235;28;20071;-78
2021/06/28 05:38:44;;;;;;;5.50;3.45;;;;;;;18.02;77.59;95522.50;5079768;28;20048;-77
2021/06/28 05:41:09;;;;;;;7.80;3.60;;;;;;;18.09;78.05;95522.78;5068706;28;20044;-77
2021/06/28 05:43:35;;;;;;;5.53;3.45;;;;;;;18.06;78.14;95518.09;5095752;28;20047;-77
2021/06/28 05:46:00;;;;;;;6.55;3.42;;;;;;;18.08;78.27;95513.22;5075444;28;20044;-77
2021/06/28 05:48:26;;;;;;;6.88;3.60;;;;;;;18.16;77.45;95512.44;5063722;28;20043;-77
2021/06/28 05:50:51;;;;;;;5.53;3.90;;;;;;;18.24;76.57;95507.41;5076397;28;20043;-78
2021/06/28 05:53:17;;;;;;;5.00;3.67;;;;;;;18.44;76.28;95516.56;5077111;28;20051;-78
2021/06/28 05:55:43;;;;;;;7.28;4.00;;;;;;;18.57;75.40;95509.47;5079591;28;20529;-78
2021/06/28 05:58:08;;;;;;;6.85;3.80;;;;;;;18.66;75.42;95504.88;5083648;28;20075;-77
2021/06/28 06:00:34;;;;;;;7.70;3.80;;;;;;;18.75;75.57;95515.50;5093546;28;20502;-77
2021/06/28 06:03:00;;;;;;;6.35;4.00;;;;;;;18.72;76.24;95506.28;5079509;28;20075;-78
2021/06/28 06:05:27;;;;;;;5.95;3.80;;;;;;;18.82;75.35;95505.91;5078289;28;20033;-78
2021/06/28 06:07:53;;;;;;;5.50;3.60;;;;;;;18.79;75.43;95511.88;5091410;28;20039;-78
2021/06/28 06:10:19;;;;;;;6.13;3.78;;;;;;;18.81;75.19;95520.31;5077646;28;20036;-77
2021/06/28 06:12:44;;;;;;;5.53;3.47;;;;;;;18.74;76.59;95520.06;5100813;28;20429;-78
2021/06/28 06:15:12;;;;;;;5.53;4.30;;;;;;;19.00;75.68;95527.16;5098336;28;20068;-78
2021/06/28 06:17:37;;;;;;;6.00;4.15;;;;;;;19.20;74.37;95526.41;5091503;28;20063;-78
2021/06/28 06:20:05;;;;;;;5.57;4.10;;;;;;;19.35;73.98;95532.25;5079992;28;20040;-78
2021/06/28 06:22:30;;;;;;;6.18;4.68;;;;;;;19.46;72.90;95528.09;5093567;28;20499;-78
2021/06/28 06:24:56;;;;;;;6.07;4.28;;;;;;;19.55;72.84;95530.72;5077804;28;20105;-78
2021/06/28 06:27:22;;;;;;;7.45;4.45;;;;;;;19.63;72.57;95527.19;5075424;28;20048;-78
2021/06/28 06:29:47;;;;;;;6.13;4.30;;;;;;;19.77;72.12;95532.25;5092985;28;20037;-79
2021/06/28 06:32:13;;;;;;;6.18;4.28;;;;;;;19.78;72.02;95520.47;5083707;28;20046;-78
2021/06/28 06:34:38;;;;;;;7.32;4.53;;;;;;;19.85;70.89;95534.09;5078841;28;20071;-78
2021/06/28 06:37:04;;;;;;;8.77;5.05;;;;;;;19.89;71.17;95529.66;5079411;28;20456;-80
2021/06/28 06:39:31;;;;;;;5.10;4.35;;;;;;;19.80;71.15;95536.97;5085119;28;20160;-79
2021/06/28 06:41:58;;;;;;;6.22;4.68;;;;;;;19.70;72.59;95532.00;5077945;28;20413;-80
2021/06/28 06:44:24;;;;;;;13.15;5.13;;;;;;;20.02;69.83;95537.72;5090684;28;20036;-80
2021/06/28 06:46:49;;;;;;;5.95;4.28;;;;;;;20.06;71.37;95533.28;5084299;28;20042;-80
2021/06/28 06:49:15;;;;;;;5.88;4.50;;;;;;;20.01;71.60;95526.25;5077699;28;20033;-79
2021/06/28 06:51:41;;;;;;;6.20;4.88;;;;;;;19.95;70.19;95532.13;5090717;28;20047;-80
2021/06/28 06:54:06;;;;;;;6.45;4.45;;;;;;;19.86;71.88;95535.66;5078562;28;20049;-79
2021/06/28 06:56:32;;;;;;;20.20;6.13;;;;;;;19.85;71.13;95530.66;5083306;28;20056;-80
2021/06/28 06:58:58;;;;;;;10.45;4.65;;;;;;;20.00;70.04;95539.94;5085434;28;20055;-78
2021/06/28 07:01:23;;;;;;;7.22;4.78;;;;;;;20.04;70.68;95546.19;5077869;28;20036;-79
2021/06/28 07:03:49;;;;;;;5.38;4.65;;;;;;;20.05;71.30;95540.50;5071459;28;20032;-77
2021/06/28 07:06:15;;;;;;;8.23;4.63;;;;;;;20.19;70.87;95542.13;5085983;28;20044;-78
2021/06/28 07:08:40;;;;;;;8.80;5.00;;;;;;;20.39;69.42;95545.84;5082529;28;20044;-77
2021/06/28 07:11:11;;;;;;;5.68;4.40;;;;;;;20.58;68.25;95540.72;5078002;28;20421;-79
2021/06/28 07:13:43;;;;;;;6.45;4.70;;;;;;;20.58;67.84;95538.06;5074417;28;20041;-80
2021/06/28 07:16:09;;;;;;;6.93;4.20;;;;;;;20.68;68.28;95536.88;5080533;28;20041;-82
2021/06/28 07:18:35;;;;;;;8.40;4.50;;;;;;;20.72;67.57;95542.34;5089115;28;20040;-80
2021/06/28 07:21:03;;;;;;;6.28;4.38;;;;;;;20.68;69.68;95530.75;5081889;28;20535;-79
2021/06/28 07:23:29;;;;;;;5.80;4.45;;;;;;;20.54;70.03;95525.69;5067033;28;20171;-79
2021/06/28 07:25:54;;;;;;;8.15;4.55;;;;;;;20.50;68.98;95525.59;5088330;28;20451;-79
2021/06/28 07:28:20;;;;;;;8.38;4.97;;;;;;;20.46;69.51;95530.03;5087494;28;20033;-79
2021/06/28 07:30:45;;;;;;;7.47;4.65;;;;;;;20.74;68.40;95524.06;5090402;28;20042;-80
2021/06/28 07:33:11;;;;;;;5.18;4.47;;;;;;;20.85;69.25;95530.53;5075293;28;20048;-80
2021/06/28 07:35:37;;;;;;;8.40;4.07;;;;;;;20.78;69.83;95519.59;5097662;28;20355;-81
2021/06/28 07:38:02;;;;;;;5.95;4.13;;;;;;;20.65;69.40;95518.03;5090314;28;20063;-80
2021/06/28 07:40:28;;;;;;;6.18;4.50;;;;;;;20.63;69.59;95517.56;5071019;28;20043;-79
2021/06/28 07:42:54;;;;;;;5.28;3.88;;;;;;;21.03;65.94;95508.88;5087083;28;20059;-78
2021/06/28 07:45:20;;;;;;;6.35;4.25;;;;;;;20.99;67.52;95518.69;5068216;28;20033;-77
2021/06/28 07:47:47;;;;;;;5.25;3.90;;;;;;;21.02;66.04;95512.66;5074762;28;20045;-79
2021/06/28 07:50:13;;;;;;;8.88;4.32;;;;;;;20.84;68.99;95506.78;5071306;28;20044;-79
2021/06/28 07:52:40;;;;;;;10.38;4.38;;;;;;;20.94;65.97;95512.44;5082166;28;20047;-78
2021/06/28 07:55:08;;;;;;;6.60;4.55;;;;;;;21.24;67.50;95517.53;5079878;28;20078;-77
2021/06/28 07:57:33;;;;;;;7.30;4.30;;;;;;;21.49;65.34;95509.44;5077717;28;20037;-77
2021/06/28 07:59:59;;;;;;;7.30;4.50;;;;;;;21.59;65.92;95514.38;5079072;28;20041;-79
2021/06/28 08:02:24;;;;;;;6.60;4.30;;;;;;;21.51;65.14;95512.63;5079990;28;20041;-79
2021/06/28 08:04:52;;;;;;;6.53;3.95;;;;;;;21.74;63.46;95514.78;5079247;28;20040;-79
2021/06/28 08:07:18;;;;;;;6.03;3.78;;;;;;;21.65;63.94;95514.13;5080197;28;20080;-78
2021/06/28 08:09:44;;;;;;;8.25;4.50;;;;;;;22.08;60.82;95504.53;5082204;28;20093;-78
2021/06/28 08:12:10;;;;;;;6.70;4.13;;;;;;;22.20;61.65;95499.13;5075896;28;20533;-78
2021/06/28 08:14:35;;;;;;;6.75;4.07;;;;;;;22.04;64.09;95501.00;5076884;28;20047;-78
2021/06/28 08:17:02;;;;;;;5.55;4.15;;;;;;;22.12;62.92;95492.81;5079316;28;20053;-77
2021/06/28 08:19:28;;;;;;;8.65;4.28;;;;;;;22.03;64.73;95484.16;5089698;28;20048;-78
2021/06/28 08:21:54;;;;;;;11.30;4.55;;;;;;;22.04;63.62;95484.91;5084968;28;20032;-78
2021/06/28 08:24:20;;;;;;;6.05;4.55;;;;;;;21.97;65.06;95486.28;5073527;28;20037;-78
2021/06/28 08:26:51;;;;;;;8.45;4.75;;;;;;;22.16;63.52;95482.19;5057390;28;20041;-78
2021/06/28 08:29:16;;;;;;;6.22;4.20;;;;;;;22.16;63.53;95487.53;5076231;28;20096;-78
2021/06/28 08:31:42;;;;;;;6.45;4.40;;;;;;;22.24;62.80;95478.56;5083138;28;20165;-78
2021/06/28 08:34:08;;;;;;;6.03;3.97;;;;;;;22.33;61.68;95473.06;5080049;28;20043;-78
2021/06/28 08:36:33;;;;;;;4.80;3.97;;;;;;;22.50;61.21;95469.25;5063685;28;20052;-78
2021/06/28 08:38:59;;;;;;;6.20;4.28;;;;;;;22.37;63.29;95470.44;5075239;28;20371;-77
2021/06/28 08:41:27;;;;;;;6.65;4.00;;;;;;;22.66;60.68;95474.59;5073988;28;20136;-78
2021/06/28 08:43:53;;;;;;;9.95;4.55;;;;;;;22.64;59.86;95469.59;5076358;28;20044;-78
2021/06/28 08:46:19;;;;;;;5.25;3.58;;;;;;;22.68;60.30;95469.66;5066462;28;20039;-78
2021/06/28 08:48:45;;;;;;;6.78;3.70;;;;;;;22.65;60.94;95471.13;5084445;28;20041;-78
2021/06/28 08:51:12;;;;;;;6.82;4.03;;;;;;;23.01;60.34;95471.94;5076250;28;20040;-78
2021/06/28 08:53:38;;;;;;;6.72;4.10;;;;;;;23.06;60.72;95467.41;5082681;28;20044;-78
2021/06/28 08:56:09;;;;;;;6.93;4.10;;;;;;;22.93;60.53;95464.84;5098406;28;20070;-78
2021/06/28 08:58:38;;;;;;;6.10;4.03;;;;;;;23.09;61.08;95462.13;5084562;28;20040;-78
2021/06/28 09:01:05;;;;;;;5.93;4.03;;;;;;;23.21;60.95;95463.94;5081695;28;20067;-78
2021/06/28 09:03:31;;;;;;;6.40;3.70;;;;;;;23.43;59.09;95464.34;5084302;28;20104;-78
2021/06/28 09:06:03;;;;;;;5.22;3.85;;;;;;;23.87;56.66;95451.41;5080239;28;20065;-78
2021/06/28 09:08:34;;;;;;;6.60;4.10;;;;;;;23.81;57.85;95452.81;5084697;28;20545;-78
2021/06/28 09:11:01;;;;;;;5.95;4.00;;;;;;;24.02;57.11;95457.84;5063778;28;20067;-80
2021/06/28 09:13:48;;;;;;;7.47;3.72;;;;;;;24.16;57.22;95456.50;5073000;28;20043;-80
2021/06/28 09:16:19;;;;;;;7.55;4.03;;;;;;;24.26;57.73;95461.28;5073012;28;20502;-79
2021/06/28 09:18:53;;;;;;;6.28;3.70;;;;;;;24.14;55.87;95458.78;5080351;28;20048;-80
2021/06/28 09:21:27;;;;;;;4.82;3.53;;;;;;;24.15;54.81;95461.13;5066186;28;20174;-81
2021/06/28 09:23:53;;;;;;;5.47;3.42;;;;;;;24.09;53.69;95461.78;5070980;28;20488;-80
2021/06/28 09:26:19;;;;;;;5.05;3.78;;;;;;;24.15;54.29;95454.94;5071044;28;20502;-80
2021/06/28 09:28:49;;;;;;;10.07;4.03;;;;;;;24.21;53.31;95461.59;5062949;28;20053;-80
2021/06/28 09:31:30;;;;;;;6.20;4.00;;;;;;;24.16;53.91;95461.88;5072479;28;20029;-80
2021/06/28 09:34:11;;;;;;;7.43;3.90;;;;;;;24.23;54.11;95456.63;5072742;28;20040;-79
2021/06/28 09:36:53;;;;;;;5.53;3.95;;;;;;;24.25;54.66;95467.03;5067950;28;20549;-79
2021/06/28 09:39:22;;;;;;;5.65;3.92;;;;;;;24.17;53.93;95463.44;5073167;28;20043;-79
2021/06/28 09:41:48;;;;;;;5.18;3.65;;;;;;;24.26;56.68;95463.97;5070316;28;20056;-79
2021/06/28 09:44:14;;;;;;;7.97;3.95;;;;;;;24.65;55.59;95455.81;5072172;28;20538;-79
2021/06/28 09:46:41;;;;;;;6.10;3.58;;;;;;;24.76;54.79;95455.19;5073000;28;20472;-82
2021/06/28 09:49:13;;;;;;;5.68;3.85;;;;;;;24.75;54.89;95453.63;5070343;28;20502;-80
2021/06/28 09:51:38;;;;;;;7.38;3.88;;;;;;;24.86;53.98;95454.56;5089228;28;20056;-79
2021/06/28 09:54:07;;;;;;;7.70;3.72;;;;;;;25.10;52.02;95457.94;5069235;28;20431;-79
2021/06/28 09:56:37;;;;;;;10.60;3.70;;;;;;;25.26;53.01;95455.84;5070052;28;20048;-81
2021/06/28 09:59:28;;;;;;;7.93;4.00;;;;;;;25.20;50.51;95457.31;5069423;28;20036;-80
2021/06/28 10:02:15;;;;;;;5.43;3.85;;;;;;;25.38;51.81;95461.00;5072963;28;20044;-81
2021/06/28 10:04:56;;;;;;;4.75;3.40;;;;;;;25.61;48.42;95457.44;5072015;28;20119;-78
2021/06/28 10:07:35;;;;;;;4.35;3.50;;;;;;;25.68;47.51;95454.81;5062148;28;20473;-76
2021/06/28 10:10:13;;;;;;;4.20;3.40;;;;;;;25.61;48.38;95448.59;5064100;28;20391;-78
2021/06/28 10:12:45;;;;;;;4.60;3.20;;;;;;;25.88;48.53;95449.25;5078013;28;20132;-77
2021/06/28 10:15:14;;;;;;;5.22;3.05;;;;;;;26.01;47.37;95445.16;5074871;28;20048;-77
2021/06/28 10:17:41;;;;;;;6.68;3.45;;;;;;;26.22;48.25;95449.19;5090551;28;20040;-78
2021/06/28 10:20:09;;;;;;;8.43;3.35;;;;;;;26.28;45.94;95447.72;5079964;28;20086;-79
2021/06/28 10:22:36;;;;;;;4.32;3.10;;;;;;;26.27;45.40;95441.53;5100715;28;20444;-78
2021/06/28 10:25:04;;;;;;;6.32;3.30;;;;;;;26.94;44.39;95449.75;5083807;28;20048;-78
2021/06/28 10:27:29;;;;;;;3.90;3.30;;;;;;;27.21;42.71;95436.78;5076444;28;20040;-80
2021/06/28 10:29:56;;;;;;;4.53;3.20;;;;;;;27.43;45.04;95432.25;5065188;28;20036;-78
2021/06/28 10:32:22;;;;;;;4.75;3.10;;;;;;;27.45;43.88;95429.16;5084219;28;20041;-79
2021/06/28 10:34:53;;;;;;;6.22;3.40;;;;;;;27.71;44.08;95436.19;5081200;28;20167;-78
2021/06/28 10:37:30;;;;;;;5.72;3.13;;;;;;;27.89;41.67;95424.66;5084292;28;20115;-78
2021/06/28 10:39:57;;;;;;;5.68;2.97;;;;;;;28.35;42.66;95419.28;5073189;28;20033;-79
2021/06/28 10:42:31;;;;;;;4.40;3.10;;;;;;;28.75;42.77;95419.28;5081232;28;20414;-80
2021/06/28 10:44:57;;;;;;;4.43;3.20;;;;;;;28.88;40.69;95410.72;5080822;28;20461;-80
2021/06/28 10:47:22;;;;;;;4.38;3.17;;;;;;;28.54;39.83;95416.59;5076533;28;20036;-79
2021/06/28 10:49:52;;;;;;;5.00;3.10;;;;;;;28.94;39.33;95415.38;5070676;28;20041;-80
2021/06/28 10:52:36;;;;;;;3.70;3.00;;;;;;;29.86;39.08;95411.91;5079207;28;20102;-80
2021/06/28 10:55:21;;;;;;;5.38;2.55;;;;;;;29.42;37.83;95405.16;5091366;28;20505;-80
2021/06/28 10:57:55;;;;;;;3.15;2.60;;;;;;;29.78;36.67;95397.59;5076038;28;20540;-79
2021/06/28 11:00:53;;;;;;;4.95;2.78;;;;;;;30.12;37.27;95396.25;5074488;28;20045;-81
2021/06/28 11:03:26;;;;;;;4.20;2.78;;;;;;;31.16;33.76;95395.28;5073781;28;20711;-80
2021/06/28 11:06:22;;;;;;;3.67;2.72;;;;;;;30.69;34.30;95389.56;5075335;28;20043;-80
2021/06/28 11:09:10;;;;;;;7.07;3.00;;;;;;;30.96;36.48;95381.50;5083247;28;20032;-78
2021/06/28 11:11:45;;;;;;;4.60;2.35;;;;;;;31.74;30.37;95389.13;5082732;28;20044;-79
2021/06/28 11:14:31;;;;;;;4.00;2.33;;;;;;;32.05;31.37;95380.88;5086459;28;20047;-79
2021/06/28 11:16:57;;;;;;;6.38;2.60;;;;;;;31.23;31.22;95378.09;5081893;28;20056;-79
2021/06/28 11:19:46;;;;;;;4.10;2.70;;;;;;;32.25;31.53;95376.31;5076381;28;20544;-78
2021/06/28 11:22:26;;;;;;;3.53;2.63;;;;;;;30.66;33.02;95374.06;5099581;28;20107;-78
2021/06/28 11:25:26;;;;;;;7.47;2.70;;;;;;;31.72;31.71;95369.69;5102651;28;20045;-79
2021/06/28 11:27:57;;;;;;;3.53;2.70;;;;;;;32.43;30.18;95367.06;5060478;28;20057;-78
2021/06/28 11:30:26;;;;;;;4.45;2.85;;;;;;;32.91;31.12;95357.63;5104291;28;20048;-78
2021/06/28 11:32:54;;;;;;;4.53;3.00;;;;;;;32.58;30.43;95346.53;5086588;28;20044;-77
2021/06/28 11:35:45;;;;;;;3.80;2.60;;;;;;;33.02;30.20;95356.66;5081594;28;20052;-75
2021/06/28 11:38:19;;;;;;;5.22;3.05;;;;;;;33.91;29.83;95348.53;5087056;28;20055;-78